• Join FlightAware (Why Join?)
  • Login
  • US Flag 
05:31AM EDT


 

Airport Tracker/Info


-or-


 

Live Flight TrackerFlight Track Log ✈ FDX1517 ✈ 04-May-2013 ✈ KMEM - KLRD

Flight Track Log - Related Links

Times and Time Zones

All times are in EDT time to prevent confusion due to time zone crossing. See the FDX1517 flight status page for this flight to view local times or setup timezone preferences in your user account.

Time Position Orientation Groundspeed Altitude Reporting Facility
EDT Latitude Longitude Course Direction KTS MPH feet Rate Location/Type
06:12AM 35.0167 -89.9833 231° Southwest 138 159 1,400  Level KMEM
06:13AM 34.9833 -89.9833 180° South 168 193 2,900 2,220 Climbing KMEM
06:14AM 34.9167 -89.9833 180° South 267 307 5,900 3,300 Climbing KMEM
06:15AM 34.8667 -90.0500 228° Southwest 243 280 9,600 2,880 Climbing KMEM
06:16AM 34.8319 -90.1472 247° West 280 322 12,000 2,340 Climbing Memphis Center
06:17AM 34.7842 -90.2508 241° Southwest 323 372 14,600 2,700 Climbing Memphis Center
06:18AM 34.6498 -90.5420 231° Southwest  Level FlightAware Approximate
06:18AM 34.7342 -90.3622 241° Southwest 366 421 17,500  Level Memphis Center
06:19AM 34.6819 -90.4808 242° Southwest 387 445 20,500 2,700 Climbing Memphis Center
06:20AM 34.6253 -90.6019 240° Southwest 402 463 22,900 2,280 Climbing Memphis Center
06:21AM 34.5561 -90.7203 235° Southwest 425 489 25,100 2,040 Climbing Memphis Center
06:22AM 34.4828 -90.8358 232° Southwest 442 509 27,000 1,920 Climbing Memphis Center
06:23AM 34.4092 -90.9564 234° Southwest 452 520 29,000 2,220 Climbing Memphis Center
06:24AM 34.3333 -91.0767 233° Southwest 452 520 31,500 1,980 Climbing Memphis Center
06:25AM 34.2681 -91.1792 232° Southwest 452 520 33,000 1,560 Climbing Memphis Center
06:26AM 34.1964 -91.2939 233° Southwest 446 513 34,700 1,500 Climbing Memphis Center
06:27AM 34.1244 -91.4086 233° Southwest 437 503 36,000 600 Climbing Memphis Center
06:28AM 34.0483 -91.5178 230° Southwest 437 503 36,000  Level Memphis Center
06:30AM 33.9078 -91.7478 234° Southwest 403 464 36,000  Level Fort Worth Center
06:31AM 33.8375 -91.8575 232° Southwest 413 475 36,000  Level Fort Worth Center
06:32AM 33.7692 -91.9642 232° Southwest 413 475 36,000  Level Fort Worth Center
06:33AM 33.7006 -92.0683 232° Southwest 413 475 36,000  Level Fort Worth Center
06:34AM 33.6342 -92.1722 233° Southwest 413 475 36,000  Level Fort Worth Center
06:35AM 33.5653 -92.2758 231° Southwest 408 470 36,000  Level Fort Worth Center
06:36AM 33.4986 -92.3794 232° Southwest 408 470 36,000  Level Fort Worth Center
06:37AM 33.4317 -92.4828 232° Southwest 408 470 36,000  Level Fort Worth Center
06:38AM 33.3625 -92.5836 231° Southwest 403 464 36,000  Level Fort Worth Center
06:39AM 33.2956 -92.6892 233° Southwest 403 464 36,000  Level Fort Worth Center
06:40AM 33.2178 -92.7828 225° Southwest 403 464 36,000  Level Fort Worth Center
06:41AM 33.1419 -92.8761 226° Southwest 397 457 36,000  Level Fort Worth Center
06:42AM 33.0681 -92.9714 227° Southwest 397 457 36,000  Level Fort Worth Center
06:48AM 32.6126 -93.5513 227° Southwest 36,000  Level FlightAware ADS-B
06:51AM 32.4376 -93.7717 227° Southwest 393 452 36,000  Level FlightAware ADS-B
06:51AM 32.3913 -93.8298 227° Southwest 392 451 36,000  Level FlightAware ADS-B
06:52AM 32.3434 -93.8897 227° Southwest 393 452 36,000  Level FlightAware ADS-B
06:53AM 32.3031 -93.9403 227° Southwest 397 457 36,000  Level FlightAware ADS-B
06:53AM 32.2648 -93.9882 227° Southwest 396 456 36,000  Level FlightAware ADS-B
06:54AM 32.2270 -94.0354 227° Southwest 396 456 36,000  Level FlightAware ADS-B
06:54AM 32.1877 -94.0842 226° Southwest 394 453 36,000  Level FlightAware ADS-B
06:55AM 32.1498 -94.1315 227° Southwest 398 458 36,000  Level FlightAware ADS-B
06:55AM 32.1110 -94.1796 226° Southwest 401 461 36,000  Level FlightAware ADS-B
06:56AM 32.0715 -94.2289 227° Southwest 391 450 36,000  Level FlightAware ADS-B
06:56AM 32.0324 -94.2774 226° Southwest 389 448 36,000  Level FlightAware ADS-B
06:57AM 31.9925 -94.3265 226° Southwest 412 474 36,000  Level FlightAware ADS-B
06:57AM 31.9542 -94.3738 226° Southwest 388 447 36,000  Level FlightAware ADS-B
06:58AM 31.9137 -94.4237 226° Southwest 399 459 36,000  Level FlightAware ADS-B
06:58AM 31.8894 -94.4539 227° Southwest 388 447 36,000  Level FlightAware ADS-B
06:58AM 31.8761 -94.4703 226° Southwest 401 461 36,000  Level FlightAware ADS-B
06:59AM 31.8396 -94.5152 226° Southwest 400 460 36,000  Level FlightAware ADS-B
06:59AM 31.8370 -94.5183 225° Southwest 402 463 36,000  Level FlightAware ADS-B
06:59AM 31.8016 -94.5619 226° Southwest 394 453 36,000  Level FlightAware ADS-B
06:59AM 31.7991 -94.5650 227° Southwest 383 441 36,000  Level FlightAware ADS-B
07:00AM 31.7628 -94.6095 226° Southwest 409 471 36,000  Level FlightAware ADS-B
07:00AM 31.7605 -94.6127 230° Southwest 404 465 36,000  Level FlightAware ADS-B
07:00AM 31.7242 -94.6570 226° Southwest 392 451 36,000  Level FlightAware ADS-B
07:00AM 31.7216 -94.6601 225° Southwest 389 448 36,000  Level FlightAware ADS-B
07:01AM 31.6848 -94.7052 226° Southwest 398 458 36,000  Level FlightAware ADS-B
07:01AM 31.6829 -94.7076 227° Southwest 398 458 36,000  Level FlightAware ADS-B
07:01AM 31.6466 -94.7519 226° Southwest 390 449 36,000  Level FlightAware ADS-B
07:01AM 31.6448 -94.7542 227° Southwest 389 448 36,000  Level FlightAware ADS-B
07:02AM 31.6066 -94.8005 226° Southwest 398 458 36,000  Level FlightAware ADS-B
07:02AM 31.5991 -94.8100 227° Southwest 393 452 36,000  Level FlightAware ADS-B
07:02AM 31.5679 -94.8482 226° Southwest 397 457 36,000  Level FlightAware ADS-B
07:02AM 31.5593 -94.8585 226° Southwest 403 464 36,000  Level FlightAware ADS-B
07:03AM 31.5275 -94.8977 226° Southwest 416 479 36,000  Level FlightAware ADS-B
07:03AM 31.5127 -94.9158 226° Southwest 413 475 36,000  Level FlightAware ADS-B
07:03AM 31.4868 -94.9473 226° Southwest 418 481 36,000  Level FlightAware ADS-B
07:03AM 31.4710 -94.9664 226° Southwest 441 507 36,000  Level FlightAware ADS-B
07:04AM 31.4456 -94.9969 226° Southwest 406 467 36,000  Level FlightAware ADS-B
07:04AM 31.4300 -95.0159 226° Southwest 421 484 36,000  Level FlightAware ADS-B
07:04AM 31.4041 -95.0472 226° Southwest 414 476 36,000  Level FlightAware ADS-B
07:04AM 31.3884 -95.0660 226° Southwest 426 490 36,000  Level FlightAware ADS-B
07:05AM 31.3625 -95.0975 226° Southwest 436 502 36,000  Level FlightAware ADS-B
07:05AM 31.3476 -95.1157 226° Southwest 434 499 36,000  Level FlightAware ADS-B
07:05AM 31.3218 -95.1469 226° Southwest 426 490 36,000  Level FlightAware ADS-B
07:05AM 31.3062 -95.1658 226° Southwest 419 482 36,000  Level FlightAware ADS-B
07:06AM 31.2805 -95.1970 226° Southwest 424 488 36,000  Level FlightAware ADS-B
07:06AM 31.2655 -95.2151 226° Southwest 409 471 36,000  Level FlightAware ADS-B
07:06AM 31.2396 -95.2461 226° Southwest 428 493 36,000  Level FlightAware ADS-B
07:06AM 31.2240 -95.2650 226° Southwest 417 480 36,000  Level FlightAware ADS-B
07:07AM 31.1988 -95.2956 226° Southwest 439 505 36,000  Level FlightAware ADS-B
07:07AM 31.1832 -95.3143 226° Southwest 420 483 36,000  Level FlightAware ADS-B
07:07AM 31.1572 -95.3455 226° Southwest 429 494 36,000  Level FlightAware ADS-B
07:07AM 31.1423 -95.3636 226° Southwest 416 479 36,000  Level FlightAware ADS-B
07:08AM 31.1157 -95.3955 226° Southwest 422 486 36,000  Level FlightAware ADS-B
07:08AM 31.1013 -95.4127 226° Southwest 423 487 36,000  Level FlightAware ADS-B
07:08AM 31.0740 -95.4454 226° Southwest 429 494 36,000  Level FlightAware ADS-B
07:08AM 31.0602 -95.4619 226° Southwest 413 475 36,000  Level FlightAware ADS-B
07:09AM 31.0321 -95.4956 226° Southwest 418 481 36,000  Level FlightAware ADS-B
07:09AM 31.0184 -95.5121 226° Southwest 427 491 36,000  Level FlightAware ADS-B
07:09AM 30.9804 -95.5574 226° Southwest 415 478 36,000  Level FlightAware ADS-B
07:09AM 30.9763 -95.5623 226° Southwest 430 495 36,000  Level FlightAware ADS-B
07:10AM 30.9344 -95.6126 226° Southwest 434 499 36,000  Level FlightAware ADS-B
07:10AM 30.8932 -95.6619 226° Southwest 428 493 36,000  Level FlightAware ADS-B
07:11AM 30.8518 -95.7112 226° Southwest 429 494 36,000  Level FlightAware ADS-B
07:11AM 30.8505 -95.7127 225° Southwest 429 494 36,000  Level FlightAware ADS-B
07:11AM 30.8101 -95.7608 226° Southwest 435 501 36,000  Level FlightAware ADS-B
07:11AM 30.8087 -95.7625 226° Southwest 432 497 36,000  Level FlightAware ADS-B
07:12AM 30.7684 -95.8102 225° Southwest 430 495 36,000  Level FlightAware ADS-B
07:12AM 30.7670 -95.8119 226° Southwest 431 496 36,000  Level FlightAware ADS-B
07:13AM 30.7258 -95.8607 226° Southwest 432 497 36,000  Level FlightAware ADS-B
07:13AM 30.6846 -95.9096 226° Southwest 425 489 36,000  Level FlightAware ADS-B
07:13AM 30.6835 -95.9113 233° Southwest 421 484 36,000  Level FlightAware ADS-B
07:14AM 30.6416 -95.9607 225° Southwest 421 484 36,000  Level FlightAware ADS-B
07:14AM 30.6409 -95.9616 228° Southwest 420 483 36,000  Level FlightAware ADS-B
07:14AM 30.5995 -96.0104 225° Southwest 418 481 36,000  Level FlightAware ADS-B
07:15AM 30.5583 -96.0593 226° Southwest 421 484 36,000  Level FlightAware ADS-B
07:15AM 30.5163 -96.1091 226° Southwest 423 487 36,000  Level FlightAware ADS-B
07:16AM 30.4749 -96.1578 225° Southwest 421 484 36,000  Level FlightAware ADS-B
07:16AM 30.4742 -96.1587 228° Southwest 420 483 36,000 180 Level FlightAware ADS-B
07:16AM 30.4326 -96.2064 225° Southwest 419 482 36,100 180 Climbing FlightAware ADS-B
07:16AM 30.4319 -96.2082 246° West 432 497 36,100 -240 Level FlightAware ADS-B
07:17AM 30.3897 -96.2567 225° Southwest 433 498 36,000  Descending FlightAware ADS-B
07:17AM 30.3482 -96.3075 227° Southwest 442 509 36,100  Climbing FlightAware ADS-B
07:18AM 30.3070 -96.3575 226° Southwest 447 514 36,000 -240 Descending FlightAware ADS-B
07:18AM 30.3062 -96.3583 221° Southwest 444 511 36,000  Level FlightAware ADS-B
07:18AM 30.2646 -96.4066 225° Southwest 435 501 36,000  Level FlightAware ADS-B
07:18AM 30.2637 -96.4072 210° Southwest 437 503 36,000  Level FlightAware ADS-B
07:19AM 30.2215 -96.4555 225° Southwest 437 503 36,000  Level FlightAware ADS-B
07:19AM 30.2201 -96.4572 226° Southwest 427 491 36,000  Level FlightAware ADS-B
07:19AM 30.1796 -96.5037 225° Southwest 428 493 36,000  Level FlightAware ADS-B
07:19AM 30.1762 -96.5079 227° Southwest 435 501 36,000  Level FlightAware ADS-B
07:20AM 30.1379 -96.5523 225° Southwest 415 478 36,000  Level FlightAware ADS-B
07:20AM 30.1345 -96.5563 225° Southwest 435 501 36,000  Level FlightAware ADS-B
07:20AM 30.0957 -96.6014 225° Southwest 433 498 36,000  Level FlightAware ADS-B
07:20AM 30.0916 -96.6062 225° Southwest 424 488 36,000  Level FlightAware ADS-B
07:21AM 30.0529 -96.6512 225° Southwest 406 467 36,000  Level FlightAware ADS-B
07:21AM 30.0502 -96.6543 225° Southwest 424 488 36,000  Level FlightAware ADS-B
07:21AM 30.0109 -96.6999 225° Southwest 412 474 36,000  Level FlightAware ADS-B
07:21AM 30.0081 -96.7030 224° Southwest 422 486 36,000  Level FlightAware ADS-B
07:22AM 29.9688 -96.7487 225° Southwest 419 482 36,000  Level FlightAware ADS-B
07:22AM 29.9667 -96.7511 225° Southwest 428 493 36,000  Level FlightAware ADS-B
07:22AM 29.9266 -96.7975 225° Southwest 425 489 36,000  Level FlightAware ADS-B
07:23AM 29.8852 -96.8455 225° Southwest 411 473 36,000  Level FlightAware ADS-B
07:23AM 29.8437 -96.8936 225° Southwest 414 476 36,000  Level FlightAware ADS-B
07:24AM 29.8015 -96.9423 225° Southwest 435 501 36,000  Level FlightAware ADS-B
07:24AM 29.7590 -96.9911 225° Southwest 429 494 36,000  Level FlightAware ADS-B
07:24AM 29.7563 -96.9942 225° Southwest 429 494 36,000  Level FlightAware ADS-B
07:25AM 29.7160 -97.0407 225° Southwest 434 499 36,000  Level FlightAware ADS-B
07:25AM 29.6743 -97.0886 225° Southwest 425 489 36,000  Level FlightAware ADS-B
07:26AM 29.6325 -97.1363 225° Southwest 427 491 36,000  Level FlightAware ADS-B
07:26AM 29.5903 -97.1849 225° Southwest 420 483 36,000  Level FlightAware ADS-B
07:27AM 29.5479 -97.2335 225° Southwest 425 489 36,000  Level FlightAware ADS-B
07:27AM 29.5055 -97.2819 225° Southwest 423 487 36,000  Level FlightAware ADS-B
07:28AM 29.4629 -97.3305 225° Southwest 436 502 36,000  Level FlightAware ADS-B
07:28AM 29.4211 -97.3785 225° Southwest 429 494 36,000  Level FlightAware ADS-B
07:29AM 29.3792 -97.4259 225° Southwest 417 480 36,000  Level FlightAware ADS-B
07:29AM 29.3374 -97.4734 225° Southwest 426 490 36,000  Level FlightAware ADS-B
07:30AM 29.2942 -97.5227 225° Southwest 442 509 36,000  Level FlightAware ADS-B
07:30AM 29.2515 -97.5711 225° Southwest 425 489 36,000  Level FlightAware ADS-B
07:31AM 29.2096 -97.6189 225° Southwest 410 472 36,000  Level FlightAware ADS-B
07:31AM 29.1667 -97.6674 225° Southwest 419 482 36,000  Level FlightAware ADS-B
07:32AM 29.1237 -97.7158 225° Southwest 419 482 36,000  Level FlightAware ADS-B
07:32AM 29.0808 -97.7643 225° Southwest 436 502 36,000  Level FlightAware ADS-B
07:33AM 29.0381 -97.8127 225° Southwest 444 511 36,000  Level FlightAware ADS-B
07:33AM 28.9890 -97.8679 225° Southwest 439 505 36,000  Level FlightAware ADS-B
07:34AM 28.9462 -97.9160 225° Southwest 423 487 36,000  Level FlightAware ADS-B
07:34AM 28.8990 -97.9690 225° Southwest 421 484 36,000  Level FlightAware ADS-B
07:35AM 28.8454 -98.0291 224° Southwest 432 497 36,000  Level FlightAware ADS-B
07:36AM 28.7953 -98.0853 225° Southwest 420 483 36,000  Level FlightAware ADS-B
07:36AM 28.7438 -98.1428 224° Southwest 425 489 36,000 -120 Level FlightAware ADS-B
07:37AM 28.7013 -98.1905 225° Southwest 425 489 35,900 -780 Descending FlightAware ADS-B
07:37AM 28.6556 -98.2415 224° Southwest 431 496 35,200 -1,500 Descending FlightAware ADS-B
07:38AM 28.6115 -98.2905 224° Southwest 432 497 34,300 -2,820 Descending FlightAware ADS-B
07:39AM 28.5400 -98.3700 224° Southwest 32,400 -3,000 Descending FlightAware
07:39AM 28.4903 -98.4255 224° Southwest 31,100 -3,240 Descending FlightAware ADS-B
07:41AM 28.3731 -98.5549 224° Southwest 27,500 -3,360 Descending FlightAware ADS-B
07:41AM 28.2928 -98.6428 224° Southwest 446 513 23,600 -3,840 Descending Houston Center
07:42AM 28.2067 -98.7383 224° Southwest 435 501 19,900 -3,480 Descending Houston Center
07:44AM 28.1228 -98.8300 224° Southwest 422 486 16,600 -3,360 Descending Houston Center
07:45AM 28.0411 -98.9192 224° Southwest 412 474 13,200 -2,880 Descending Houston Center
07:46AM 27.9639 -99.0042 224° Southwest 397 457 10,800 -1,560 Descending Houston Center
07:47AM 27.8983 -99.0750 224° Southwest 347 399 10,100 -1,080 Descending Houston Center
07:48AM 27.8436 -99.1358 225° Southwest 290 334 8,700 -1,740 Descending Houston Center
07:49AM 27.7908 -99.1978 226° Southwest 278 320 6,700 -2,100 Descending Houston Center
07:50AM 27.7489 -99.2717 237° Southwest 280 322 4,500 -1,440 Descending Houston Center
07:51AM 27.7125 -99.3453 241° Southwest 278 320 3,900 -960 Descending Houston Center
07:52AM 27.6689 -99.4219 237° Southwest 259 298 2,600 -1,020 Descending Houston Center
07:53AM 27.6297 -99.4589 220° Southwest 221 254 1,900 -720 Descending Houston Center
07:54AM 27.5897 -99.4606 182° South 173 199 1,200 -660 Descending Houston Center
07:55AM 27.5569 -99.4617 182° South 142 163 600 -600 Descending Houston Center
07:57AM 27.5442 -99.4616 90° East  Level Estimated